Time;durP1;ratioP1;P1;durP2;ratioP2;P2;SDS_P1;SDS_P2;PMS_P1;PMS_P2;Temp;Humidity;BMP_temperature;BMP_pressure;BME280_temperature;BME280_humidity;BME280_pressure;Samples;Min_cycle;Max_cycle;Signal;HPM_P1;HPM_P2
2023/03/14 00:00:34;;;;;;;25.27;20.30;;;13.70;1.00;;;;;;4932563;29;20083;-73
2023/03/14 00:03:00;;;;;;;23.05;20.15;;;13.80;1.00;;;;;;4935258;29;20371;-73
2023/03/14 00:05:26;;;;;;;29.20;21.20;;;13.80;1.00;;;;;;4933392;29;20078;-73
2023/03/14 00:07:52;;;;;;;25.48;21.00;;;13.80;1.00;;;;;;4937024;29;20476;-74
2023/03/14 00:10:18;;;;;;;22.83;19.67;;;13.80;1.00;;;;;;4928856;29;20047;-73
2023/03/14 00:12:44;;;;;;;24.90;20.40;;;13.80;1.00;;;;;;4924665;29;20029;-72
2023/03/14 00:15:10;;;;;;;25.02;19.90;;;13.70;1.00;;;;;;4935776;29;20151;-72
2023/03/14 00:17:36;;;;;;;24.50;19.10;;;13.70;1.00;;;;;;4933452;29;20055;-72
2023/03/14 00:20:04;;;;;;;26.15;19.83;;;13.70;1.00;;;;;;4933514;29;20370;-72
2023/03/14 00:22:31;;;;;;;23.05;18.77;;;13.80;1.00;;;;;;4936987;29;20039;-72
2023/03/14 00:24:57;;;;;;;24.75;19.27;;;13.90;1.00;;;;;;4936353;29;20080;-73
2023/03/14 00:27:22;;;;;;;28.58;20.98;;;13.80;1.00;;;;;;4937036;29;20474;-73
2023/03/14 00:29:48;;;;;;;24.08;19.13;;;13.90;1.00;;;;;;4935159;29;20031;-73
2023/03/14 00:32:14;;;;;;;24.13;18.90;;;13.80;1.00;;;;;;4937331;29;20407;-72
2023/03/14 00:34:39;;;;;;;22.77;18.40;;;13.80;1.00;;;;;;4936102;29;20103;-73
2023/03/14 00:37:06;;;;;;;27.30;19.25;;;13.60;1.00;;;;;;4936732;29;20059;-72
2023/03/14 00:39:31;;;;;;;24.20;20.10;;;13.70;1.00;;;;;;4936105;29;20473;-71
2023/03/14 00:41:57;;;;;;;24.98;19.50;;;13.60;1.00;;;;;;4936676;29;20079;-70
2023/03/14 00:44:23;;;;;;;26.17;18.85;;;13.50;1.00;;;;;;4928992;29;20031;-71
2023/03/14 00:46:48;;;;;;;23.58;18.17;;;13.50;1.00;;;;;;4936968;29;20043;-70
2023/03/14 00:49:14;;;;;;;20.33;17.73;;;13.60;1.00;;;;;;4935364;29;20024;-70
2023/03/14 00:51:40;;;;;;;25.20;18.33;;;13.60;1.00;;;;;;4923066;29;20039;-70
2023/03/14 00:54:05;;;;;;;24.02;17.27;;;13.50;1.00;;;;;;4918734;29;20048;-69
2023/03/14 00:56:31;;;;;;;20.65;18.05;;;13.50;1.00;;;;;;4916040;29;20040;-70
2023/03/14 00:58:57;;;;;;;20.98;17.50;;;13.50;1.00;;;;;;4916086;29;20438;-70
2023/03/14 01:01:23;;;;;;;23.52;17.13;;;13.50;1.00;;;;;;4915809;29;20032;-70
2023/03/14 01:03:53;;;;;;;21.38;16.77;;;13.40;1.00;;;;;;4916342;29;20485;-71
2023/03/14 01:06:25;;;;;;;24.23;17.65;;;13.50;1.00;;;;;;4915452;29;20036;-70
2023/03/14 01:08:51;;;;;;;21.92;17.20;;;13.60;1.00;;;;;;4897315;29;20021;-71
2023/03/14 01:11:24;;;;;;;22.98;17.95;;;13.50;1.00;;;;;;4911166;29;20040;-70
2023/03/14 01:13:50;;;;;;;19.85;15.82;;;13.50;1.00;;;;;;4917389;29;20028;-70
2023/03/14 01:16:18;;;;;;;21.00;16.10;;;13.50;1.00;;;;;;4911449;29;20515;-71
2023/03/14 01:18:45;;;;;;;20.63;16.05;;;13.50;1.00;;;;;;4914983;29;20475;-71
2023/03/14 01:21:15;;;;;;;18.85;16.27;;;13.40;1.00;;;;;;4917327;29;20131;-70
2023/03/14 01:23:41;;;;;;;18.95;15.18;;;13.40;1.00;;;;;;4916230;29;20024;-70
2023/03/14 01:26:12;;;;;;;17.80;15.45;;;13.50;1.00;;;;;;4906888;29;20490;-70
2023/03/14 01:28:39;;;;;;;19.35;15.10;;;13.50;1.00;;;;;;4914302;29;20419;-70
2023/03/14 01:31:06;;;;;;;23.33;16.23;;;13.50;1.00;;;;;;4910092;29;20092;-72
2023/03/14 01:33:32;;;;;;;23.40;16.95;;;13.40;1.00;;;;;;4912102;29;20569;-70
2023/03/14 01:35:58;;;;;;;21.70;16.38;;;13.40;1.00;;;;;;4914792;29;20040;-71
2023/03/14 01:38:24;;;;;;;21.80;16.17;;;13.40;1.00;;;;;;4906834;29;20084;-70
2023/03/14 01:40:49;;;;;;;20.35;16.55;;;13.30;1.00;;;;;;4908229;29;20542;-71
2023/03/14 01:43:19;;;;;;;23.63;16.40;;;13.20;1.00;;;;;;4904255;29;20020;-70
2023/03/14 01:46:05;;;;;;;22.77;16.38;;;13.40;1.00;;;;;;4911313;29;20028;-70
2023/03/14 01:49:00;;;;;;;18.55;15.18;;;13.30;1.00;;;;;;4915208;29;20087;-71
2023/03/14 01:51:42;;;;;;;20.48;16.23;;;13.30;1.00;;;;;;4886020;29;20472;-70
2023/03/14 01:54:16;;;;;;;19.60;15.85;;;13.30;1.00;;;;;;4929539;29;20058;-70
2023/03/14 01:56:45;;;;;;;22.42;16.65;;;13.30;1.00;;;;;;4928760;29;20039;-71
2023/03/14 01:59:11;;;;;;;18.90;16.23;;;13.30;1.00;;;;;;4922548;29;20027;-71
2023/03/14 02:01:40;;;;;;;18.13;16.20;;;13.30;1.00;;;;;;4925632;29;20079;-69
2023/03/14 02:04:07;;;;;;;21.67;16.65;;;13.40;1.00;;;;;;4920867;29;20024;-68
2023/03/14 02:06:58;;;;;;;21.60;17.17;;;13.40;1.00;;;;;;4931536;29;20083;-69
2023/03/14 02:09:24;;;;;;;23.05;16.90;;;13.20;1.00;;;;;;4926867;29;20047;-69
2023/03/14 02:11:51;;;;;;;20.95;17.67;;;13.20;1.00;;;;;;4933133;29;20482;-69
2023/03/14 02:14:29;;;;;;;21.20;16.85;;;13.30;1.00;;;;;;4934881;29;20035;-69
2023/03/14 02:16:55;;;;;;;21.83;17.08;;;13.20;1.00;;;;;;4934001;29;20487;-69
2023/03/14 02:19:34;;;;;;;21.98;16.40;;;13.20;1.00;;;;;;4933163;29;20061;-69
2023/03/14 02:22:11;;;;;;;19.70;16.42;;;13.20;1.00;;;;;;4934108;29;20118;-69
2023/03/14 02:24:51;;;;;;;22.70;16.77;;;13.20;1.00;;;;;;4933522;29;20121;-69
2023/03/14 02:27:19;;;;;;;18.67;16.13;;;13.20;1.00;;;;;;4934150;29;20481;-69
2023/03/14 02:29:56;;;;;;;21.20;17.02;;;13.20;1.00;;;;;;4915926;29;20032;-68
2023/03/14 02:32:23;;;;;;;20.40;16.20;;;13.10;1.00;;;;;;4924719;29;20385;-69
2023/03/14 02:34:59;;;;;;;19.42;16.15;;;13.20;1.00;;;;;;4932756;29;20085;-69
2023/03/14 02:37:42;;;;;;;26.08;16.60;;;13.10;1.00;;;;;;4933838;29;20062;-69
2023/03/14 02:40:08;;;;;;;22.52;16.50;;;13.20;1.00;;;;;;4928572;29;20027;-70
2023/03/14 02:42:34;;;;;;;19.08;15.73;;;13.30;1.00;;;;;;4919323;29;20028;-69
2023/03/14 02:45:20;;;;;;;20.08;16.10;;;13.20;1.00;;;;;;4934964;29;20086;-72
2023/03/14 02:48:01;;;;;;;19.83;14.40;;;13.10;1.00;;;;;;4924577;29;20028;-72
2023/03/14 02:50:30;;;;;;;17.63;15.43;;;13.10;1.00;;;;;;4927205;29;20043;-73
2023/03/14 02:52:56;;;;;;;19.65;15.07;;;13.20;1.00;;;;;;4934638;29;20075;-73
2023/03/14 02:55:23;;;;;;;18.27;15.65;;;13.30;1.00;;;;;;4936520;29;20549;-72
2023/03/14 02:57:49;;;;;;;20.15;15.05;;;13.30;1.00;;;;;;4936705;29;20725;-72
2023/03/14 03:00:15;;;;;;;21.33;16.45;;;13.30;1.00;;;;;;4933902;29;20036;-72
2023/03/14 03:02:41;;;;;;;20.70;15.98;;;13.40;1.00;;;;;;4930913;29;20504;-73
2023/03/14 03:05:07;;;;;;;20.50;15.93;;;13.40;1.00;;;;;;4923964;29;20036;-73
2023/03/14 03:07:33;;;;;;;19.02;14.75;;;13.30;1.00;;;;;;4934048;29;20485;-72
2023/03/14 03:09:59;;;;;;;19.08;15.77;;;13.40;1.00;;;;;;4932354;29;20048;-73
2023/03/14 03:12:24;;;;;;;17.90;15.30;;;13.40;1.00;;;;;;4935048;29;20031;-73
2023/03/14 03:14:50;;;;;;;20.60;15.90;;;13.30;1.00;;;;;;4930085;29;20046;-74
2023/03/14 03:17:16;;;;;;;21.77;16.05;;;13.30;1.00;;;;;;4927393;29;20131;-73
2023/03/14 03:19:41;;;;;;;20.23;16.35;;;13.30;1.00;;;;;;4930704;29;20337;-76
2023/03/14 03:22:07;;;;;;;21.30;15.50;;;13.30;1.00;;;;;;4936162;29;20074;-75
2023/03/14 03:24:33;;;;;;;21.85;16.17;;;13.10;1.00;;;;;;4935059;29;20493;-75
2023/03/14 03:26:58;;;;;;;23.48;16.65;;;13.10;1.00;;;;;;4932597;29;20036;-74
2023/03/14 03:29:24;;;;;;;21.27;17.00;;;13.10;1.00;;;;;;4931216;29;20058;-74
2023/03/14 03:31:50;;;;;;;18.77;16.10;;;13.20;1.00;;;;;;4930671;29;20039;-74
2023/03/14 03:34:15;;;;;;;20.92;16.30;;;13.10;1.00;;;;;;4934346;29;20038;-75
2023/03/14 03:36:41;;;;;;;20.08;17.20;;;13.20;1.00;;;;;;4935209;29;20040;-73
2023/03/14 03:39:07;;;;;;;19.38;16.38;;;13.20;99.90;;;;;;4934667;29;20405;-73
2023/03/14 03:41:32;;;;;;;23.02;17.77;;;13.10;99.90;;;;;;4929238;29;20103;-75
2023/03/14 03:43:58;;;;;;;20.08;15.90;;;13.00;99.90;;;;;;4929732;29;20170;-74
2023/03/14 03:46:24;;;;;;;17.85;15.60;;;13.00;99.90;;;;;;4933936;29;20623;-74
2023/03/14 03:48:58;;;;;;;20.15;15.80;;;13.00;1.00;;;;;;4927568;29;20558;-73
2023/03/14 03:51:24;;;;;;;22.48;16.35;;;13.00;1.00;;;;;;4936022;29;20028;-73
2023/03/14 03:53:50;;;;;;;21.10;17.55;;;13.00;1.00;;;;;;4932313;29;20182;-73
2023/03/14 03:56:16;;;;;;;21.88;17.13;;;13.10;1.00;;;;;;4935402;29;20142;-70
2023/03/14 03:58:42;;;;;;;26.80;18.80;;;13.10;1.00;;;;;;4933426;29;20024;-70
2023/03/14 04:01:09;;;;;;;27.40;20.10;;;12.90;1.00;;;;;;4935105;29;20067;-70
2023/03/14 04:03:35;;;;;;;29.55;19.67;;;12.80;1.00;;;;;;4928323;29;20693;-71
2023/03/14 04:06:03;;;;;;;25.95;19.77;;;12.70;1.00;;;;;;4930054;29;20028;-70
2023/03/14 04:08:29;;;;;;;25.67;20.20;;;12.60;1.00;;;;;;4931171;29;20566;-70
2023/03/14 04:10:58;;;;;;;38.15;22.33;;;12.60;1.00;;;;;;4934253;29;20020;-70
2023/03/14 04:13:25;;;;;;;42.22;26.30;;;12.50;1.00;;;;;;4933925;29;20106;-69
2023/03/14 04:15:52;;;;;;;49.15;30.17;;;12.40;93.70;;;;;;4934270;29;20139;-68
2023/03/14 04:18:17;;;;;;;44.47;26.38;;;12.40;99.90;;;;;;4931958;29;20055;-68
2023/03/14 04:20:44;;;;;;;57.60;29.98;;;12.60;99.90;;;;;;4933476;29;20071;-68
2023/03/14 04:23:09;;;;;;;51.60;31.88;;;12.80;99.90;;;;;;4930472;29;20042;-67
2023/03/14 04:25:35;;;;;;;50.15;32.20;;;13.10;99.90;;;;;;4933604;29;20028;-68
2023/03/14 04:28:01;;;;;;;58.78;36.83;;;13.20;99.90;;;;;;4934705;29;20024;-68
2023/03/14 04:30:27;;;;;;;52.88;33.95;;;13.20;99.90;;;;;;4934206;29;20054;-68
2023/03/14 04:32:53;;;;;;;72.63;40.15;;;13.10;99.90;;;;;;4934401;29;20035;-69
2023/03/14 04:35:19;;;;;;;49.75;34.20;;;13.20;99.90;;;;;;4933657;29;20493;-68
2023/03/14 04:37:48;;;;;;;68.43;40.28;;;13.10;99.90;;;;;;4926765;29;20046;-67
2023/03/14 04:40:15;;;;;;;62.17;39.10;;;13.20;99.90;;;;;;4917204;29;20063;-68
2023/03/14 04:42:41;;;;;;;60.67;38.05;;;13.10;99.90;;;;;;4933958;29;20185;-69
2023/03/14 04:45:07;;;;;;;50.00;33.90;;;12.90;99.90;;;;;;4931241;29;20513;-69
2023/03/14 04:47:33;;;;;;;52.40;34.97;;;12.80;99.90;;;;;;4933317;29;20474;-70
2023/03/14 04:49:59;;;;;;;43.92;30.77;;;12.90;99.90;;;;;;4934996;29;20035;-70
2023/03/14 04:52:24;;;;;;;41.90;30.35;;;12.50;99.90;;;;;;4932864;29;20039;-69
2023/03/14 04:54:50;;;;;;;48.63;33.50;;;12.40;99.90;;;;;;4924478;29;20040;-71
2023/03/14 04:57:15;;;;;;;44.75;31.27;;;12.30;99.90;;;;;;4933588;29;20043;-71
2023/03/14 04:59:41;;;;;;;45.17;32.78;;;12.40;99.90;;;;;;4930718;29;20473;-71
2023/03/14 05:02:07;;;;;;;41.83;29.23;;;12.40;99.90;;;;;;4930760;29;20033;-72
2023/03/14 05:04:33;;;;;;;43.85;29.48;;;12.30;99.90;;;;;;4929961;29;20091;-72
2023/03/14 05:06:59;;;;;;;46.15;31.60;;;12.50;99.90;;;;;;4935541;29;20122;-72
2023/03/14 05:09:25;;;;;;;42.55;31.35;;;12.30;99.90;;;;;;4926538;29;20103;-71
2023/03/14 05:11:51;;;;;;;44.30;30.83;;;12.40;99.90;;;;;;4932567;29;20024;-72
2023/03/14 05:14:17;;;;;;;48.22;32.08;;;12.20;99.90;;;;;;4922532;29;20039;-72
2023/03/14 05:16:43;;;;;;;39.30;28.35;;;12.30;99.90;;;;;;4923488;29;20044;-71
2023/03/14 05:19:10;;;;;;;53.38;32.70;;;12.30;99.90;;;;;;4935172;29;20039;-72
2023/03/14 05:21:36;;;;;;;42.15;30.67;;;12.40;99.90;;;;;;4931461;29;20048;-72
2023/03/14 05:24:02;;;;;;;43.70;29.77;;;12.40;99.90;;;;;;4930213;29;20026;-71
2023/03/14 05:26:27;;;;;;;44.05;29.90;;;12.20;99.90;;;;;;4932245;29;20031;-71
2023/03/14 05:28:53;;;;;;;42.47;30.35;;;12.20;99.90;;;;;;4933408;29;20453;-72
2023/03/14 05:31:20;;;;;;;36.40;27.02;;;12.10;99.90;;;;;;4925979;29;20521;-71
2023/03/14 05:33:45;;;;;;;38.40;28.20;;;12.20;99.90;;;;;;4929652;29;20051;-71
2023/03/14 05:36:11;;;;;;;39.88;29.05;;;12.30;99.90;;;;;;4929160;29;20114;-71
2023/03/14 05:38:37;;;;;;;41.83;29.67;;;12.10;99.90;;;;;;4930173;29;20036;-72
2023/03/14 05:41:03;;;;;;;41.50;31.90;;;12.00;99.90;;;;;;4923695;29;20064;-72
2023/03/14 05:43:28;;;;;;;42.55;33.20;;;12.10;99.90;;;;;;4933049;29;20024;-72
2023/03/14 05:45:54;;;;;;;46.05;35.17;;;12.10;99.90;;;;;;4931011;29;20027;-71
2023/03/14 05:48:21;;;;;;;38.20;31.73;;;12.10;99.90;;;;;;4929301;29;20498;-72
2023/03/14 05:50:47;;;;;;;40.55;30.35;;;12.20;99.90;;;;;;4931697;29;20035;-72
2023/03/14 05:53:13;;;;;;;44.50;31.40;;;12.30;99.90;;;;;;4914144;29;20044;-73
2023/03/14 05:55:39;;;;;;;42.78;29.15;;;12.40;99.90;;;;;;4911596;29;20047;-73
2023/03/14 05:58:05;;;;;;;39.40;29.75;;;12.40;99.90;;;;;;4910752;29;20451;-73
2023/03/14 06:00:31;;;;;;;35.58;26.45;;;12.60;99.90;;;;;;4910743;29;20067;-73
2023/03/14 06:02:57;;;;;;;33.10;25.13;;;12.60;99.90;;;;;;4897877;29;20059;-74
2023/03/14 06:05:22;;;;;;;31.98;24.23;;;12.40;99.90;;;;;;4910668;29;20040;-73
2023/03/14 06:07:48;;;;;;;40.33;29.83;;;12.40;99.90;;;;;;4907950;29;20478;-73
2023/03/14 06:10:14;;;;;;;37.67;27.70;;;12.40;99.90;;;;;;4910743;29;20033;-73
2023/03/14 06:12:39;;;;;;;39.15;28.38;;;12.40;99.90;;;;;;4898645;29;20035;-73
2023/03/14 06:15:05;;;;;;;38.80;27.02;;;12.40;99.90;;;;;;4916868;29;20103;-73
2023/03/14 06:17:31;;;;;;;36.42;27.55;;;12.40;99.90;;;;;;4919689;29;20163;-73
2023/03/14 06:19:57;;;;;;;40.15;27.90;;;12.50;99.90;;;;;;4911293;29;20107;-73
2023/03/14 06:22:22;;;;;;;37.50;29.48;;;12.60;99.90;;;;;;4911381;29;22055;-73
2023/03/14 06:24:48;;;;;;;40.70;29.52;;;12.60;99.90;;;;;;4912944;29;20131;-73
2023/03/14 06:27:14;;;;;;;38.80;29.40;;;12.60;99.90;;;;;;4915572;29;20032;-73
2023/03/14 06:29:39;;;;;;;35.20;25.95;;;12.60;99.90;;;;;;4917159;29;20035;-73
2023/03/14 06:32:05;;;;;;;36.33;26.27;;;12.60;99.90;;;;;;4917635;29;20054;-74
2023/03/14 06:34:31;;;;;;;33.53;26.05;;;12.50;99.90;;;;;;4899881;29;20442;-74
2023/03/14 06:36:56;;;;;;;38.60;28.60;;;12.40;99.90;;;;;;4914225;29;20128;-72
2023/03/14 06:39:22;;;;;;;40.53;30.98;;;12.50;99.90;;;;;;4917046;29;20096;-72
2023/03/14 06:41:48;;;;;;;42.55;29.85;;;12.60;99.90;;;;;;4914046;29;20026;-74
2023/03/14 06:44:13;;;;;;;40.13;29.98;;;12.50;99.90;;;;;;4914005;29;20114;-72
2023/03/14 06:46:39;;;;;;;36.97;29.15;;;12.60;99.90;;;;;;4912765;29;20382;-73
2023/03/14 06:49:04;;;;;;;43.47;30.52;;;12.50;99.90;;;;;;4915852;29;20036;-72
2023/03/14 06:51:30;;;;;;;41.63;29.60;;;12.70;99.90;;;;;;4913810;29;20040;-72
2023/03/14 06:53:56;;;;;;;42.33;31.50;;;12.60;99.90;;;;;;4923700;29;20050;-72
2023/03/14 06:56:21;;;;;;;44.00;31.85;;;12.60;99.90;;;;;;4933921;29;20039;-72
2023/03/14 06:58:47;;;;;;;40.60;30.00;;;12.60;99.90;;;;;;4930578;29;20128;-72
2023/03/14 07:01:23;;;;;;;40.25;29.50;;;12.80;99.90;;;;;;4935187;29;20024;-72
2023/03/14 07:03:49;;;;;;;43.63;31.73;;;12.80;99.90;;;;;;4930324;29;20438;-72
2023/03/14 07:06:15;;;;;;;43.95;32.35;;;12.80;99.90;;;;;;4934422;29;20023;-72
2023/03/14 07:08:41;;;;;;;41.20;29.33;;;12.80;99.90;;;;;;4932445;29;20534;-72
2023/03/14 07:11:08;;;;;;;48.80;33.17;;;12.80;99.90;;;;;;4936924;29;20051;-72
2023/03/14 07:13:33;;;;;;;35.65;28.20;;;12.90;99.90;;;;;;4934698;29;20039;-72
2023/03/14 07:15:59;;;;;;;35.45;28.42;;;12.90;99.90;;;;;;4931073;29;20056;-72
2023/03/14 07:18:24;;;;;;;42.10;30.75;;;12.70;99.90;;;;;;4932107;29;20023;-73
2023/03/14 07:20:50;;;;;;;45.78;30.52;;;12.90;99.90;;;;;;4931027;29;20032;-72
2023/03/14 07:23:16;;;;;;;36.78;28.83;;;12.90;99.90;;;;;;4934151;29;20051;-74
2023/03/14 07:25:41;;;;;;;36.58;30.70;;;12.70;99.90;;;;;;4935835;29;20111;-74
2023/03/14 07:28:07;;;;;;;41.30;30.35;;;12.90;99.90;;;;;;4933580;29;20421;-74
2023/03/14 07:30:33;;;;;;;40.78;29.30;;;12.80;99.90;;;;;;4926961;29;20030;-74
2023/03/14 07:32:58;;;;;;;39.40;30.27;;;12.90;99.90;;;;;;4933390;29;20430;-75
2023/03/14 07:35:24;;;;;;;38.80;30.52;;;13.10;99.90;;;;;;4937557;29;20393;-73
2023/03/14 07:37:49;;;;;;;42.45;31.70;;;13.00;99.90;;;;;;4928661;29;20485;-74
2023/03/14 07:40:15;;;;;;;48.10;34.25;;;12.70;99.90;;;;;;4936055;29;20091;-74
2023/03/14 07:42:44;;;;;;;51.08;33.88;;;12.40;99.90;;;;;;4931526;29;20030;-75
2023/03/14 07:45:10;;;;;;;41.45;31.42;;;12.70;99.90;;;;;;4931974;29;20406;-72
2023/03/14 07:47:36;;;;;;;47.50;32.20;;;12.70;99.90;;;;;;4933903;29;20525;-73
2023/03/14 07:50:03;;;;;;;47.67;34.85;;;12.60;99.90;;;;;;4933816;29;20115;-73
2023/03/14 07:52:29;;;;;;;47.30;32.92;;;12.60;99.90;;;;;;4933855;29;20148;-74
2023/03/14 07:54:55;;;;;;;45.35;31.80;;;12.60;99.90;;;;;;4936435;29;20437;-75
2023/03/14 07:57:20;;;;;;;41.63;30.83;;;12.40;99.90;;;;;;4934578;29;20063;-74
2023/03/14 07:59:46;;;;;;;43.20;29.95;;;12.30;99.90;;;;;;4934702;29;20031;-69
2023/03/14 08:02:12;;;;;;;36.42;28.08;;;12.50;99.90;;;;;;4936829;29;20035;-64
2023/03/14 08:04:39;;;;;;;42.35;32.53;;;12.50;99.90;;;;;;4935103;29;20020;-57
2023/03/14 08:07:05;;;;;;;43.97;32.55;;;12.50;99.90;;;;;;4929771;29;20486;-66
2023/03/14 08:09:32;;;;;;;38.05;31.35;;;12.70;99.90;;;;;;4935786;29;20028;-68
2023/03/14 08:11:57;;;;;;;43.17;30.67;;;12.70;99.90;;;;;;4935477;29;20044;-58
2023/03/14 08:14:26;;;;;;;39.63;29.23;;;12.60;99.90;;;;;;4930953;29;20032;-57
2023/03/14 08:16:52;;;;;;;39.55;30.40;;;12.70;99.90;;;;;;4936465;29;20067;-50
2023/03/14 08:19:17;;;;;;;43.80;30.17;;;12.40;99.90;;;;;;4935736;29;20445;-55
2023/03/14 08:21:43;;;;;;;39.95;30.20;;;12.50;99.90;;;;;;4936716;29;20134;-52
2023/03/14 08:24:09;;;;;;;34.53;28.42;;;12.70;99.90;;;;;;4933257;29;20044;-59
2023/03/14 08:26:34;;;;;;;39.10;29.33;;;12.70;99.90;;;;;;4936179;29;20110;-59
2023/03/14 08:29:00;;;;;;;35.78;28.52;;;12.80;99.90;;;;;;4928252;29;20098;-58
2023/03/14 08:31:26;;;;;;;32.90;25.48;;;12.80;99.90;;;;;;4928746;29;20047;-62
2023/03/14 08:33:52;;;;;;;31.10;25.70;;;12.70;99.90;;;;;;4930167;29;20031;-63
2023/03/14 08:36:19;;;;;;;33.33;25.83;;;12.70;99.90;;;;;;4931411;29;20023;-64
2023/03/14 08:38:45;;;;;;;31.13;25.25;;;12.50;99.90;;;;;;4933915;29;20516;-63
2023/03/14 08:41:11;;;;;;;32.60;25.05;;;12.50;99.90;;;;;;4934425;29;20027;-66
2023/03/14 08:43:36;;;;;;;31.30;23.58;;;12.50;99.90;;;;;;4931533;29;20389;-59
2023/03/14 08:46:03;;;;;;;31.05;25.27;;;12.50;99.90;;;;;;4932950;29;20027;-66
2023/03/14 08:48:30;;;;;;;30.33;24.60;;;12.60;99.90;;;;;;4926893;29;20083;-66
2023/03/14 08:50:57;;;;;;;29.88;23.65;;;12.40;99.90;;;;;;4932775;29;20055;-66
2023/03/14 08:53:22;;;;;;;30.85;26.08;;;12.20;99.90;;;;;;4934646;29;21470;-67
2023/03/14 08:55:53;;;;;;;32.17;27.10;;;12.40;99.90;;;;;;4933754;29;20090;-68
2023/03/14 08:58:19;;;;;;;32.72;26.88;;;12.90;99.90;;;;;;4930935;29;20397;-70
2023/03/14 09:00:45;;;;;;;32.67;26.98;;;13.00;99.90;;;;;;4931688;29;20034;-53
2023/03/14 09:03:10;;;;;;;32.47;26.33;;;13.10;99.90;;;;;;4928384;29;20023;-58
2023/03/14 09:05:36;;;;;;;34.53;27.58;;;13.20;99.90;;;;;;4931929;29;20019;-56
2023/03/14 09:08:02;;;;;;;34.28;27.52;;;13.50;99.90;;;;;;4929841;29;20035;-62
2023/03/14 09:10:28;;;;;;;32.63;27.17;;;13.50;99.90;;;;;;4924049;29;20043;-59
2023/03/14 09:12:54;;;;;;;31.27;25.73;;;13.40;99.90;;;;;;4931012;29;20047;-63
2023/03/14 09:15:19;;;;;;;36.10;26.48;;;13.60;99.90;;;;;;4927927;29;20034;-66
2023/03/14 09:17:45;;;;;;;35.80;26.75;;;13.70;99.90;;;;;;4928859;29;20039;-67
2023/03/14 09:20:11;;;;;;;34.85;25.30;;;13.60;99.90;;;;;;4927275;29;20527;-58
2023/03/14 09:22:36;;;;;;;31.45;24.90;;;13.40;99.90;;;;;;4927047;29;20355;-61
2023/03/14 09:25:03;;;;;;;29.98;25.63;;;13.30;99.90;;;;;;4928635;29;20032;-58
2023/03/14 09:27:29;;;;;;;32.58;25.75;;;13.40;99.90;;;;;;4932052;29;20104;-52
2023/03/14 09:29:55;;;;;;;28.77;24.05;;;13.60;99.90;;;;;;4933409;29;20129;-56
2023/03/14 09:32:20;;;;;;;27.45;22.65;;;13.70;99.90;;;;;;4934807;29;20389;-50
2023/03/14 09:34:46;;;;;;;30.33;24.40;;;13.70;99.90;;;;;;4934340;29;20462;-61
2023/03/14 09:37:11;;;;;;;26.20;22.30;;;13.80;99.90;;;;;;4929412;29;20375;-50
2023/03/14 09:39:37;;;;;;;30.83;25.35;;;13.90;99.90;;;;;;4932083;29;21475;-52
2023/03/14 09:42:07;;;;;;;29.65;25.10;;;14.10;99.90;;;;;;4930073;29;20046;-65
2023/03/14 09:44:39;;;;;;;30.90;26.10;;;14.10;99.90;;;;;;4933707;29;20034;-58
2023/03/14 09:47:13;;;;;;;31.33;26.40;;;14.10;99.90;;;;;;4933242;29;20125;-54
2023/03/14 09:49:42;;;;;;;37.40;29.58;;;14.10;99.90;;;;;;4932676;29;20118;-57
2023/03/14 09:52:32;;;;;;;41.10;30.77;;;14.10;99.90;;;;;;4933618;29;20032;-55
2023/03/14 09:55:02;;;;;;;33.38;28.48;;;14.00;99.90;;;;;;4932984;29;20094;-56
2023/03/14 09:57:33;;;;;;;37.17;29.77;;;14.10;99.90;;;;;;4926115;29;20044;-56
2023/03/14 10:00:14;;;;;;;36.78;28.02;;;14.20;99.90;;;;;;4929883;29;20051;-56
2023/03/14 10:02:53;;;;;;;30.88;27.13;;;14.30;99.90;;;;;;4928831;29;20043;-55
2023/03/14 10:05:21;;;;;;;34.08;27.77;;;14.30;99.90;;;;;;4928110;29;20429;-57
2023/03/14 10:07:46;;;;;;;32.72;27.10;;;14.40;99.90;;;;;;4932075;29;20039;-57
2023/03/14 10:10:17;;;;;;;36.72;28.00;;;14.50;99.90;;;;;;4932439;29;20023;-55
2023/03/14 10:12:46;;;;;;;32.95;26.83;;;14.70;22.00;;;;;;4932185;29;20032;-63
2023/03/14 10:15:17;;;;;;;34.50;28.38;;;14.80;1.00;;;;;;4933086;29;20133;-70
2023/03/14 10:17:50;;;;;;;36.08;26.95;;;15.10;1.00;;;;;;4925566;29;20059;-59
2023/03/14 10:20:27;;;;;;;40.85;31.08;;;15.30;1.00;;;;;;4931742;29;20067;-51
2023/03/14 10:22:53;;;;;;;38.35;28.42;;;15.40;1.00;;;;;;4932136;29;20034;-49
2023/03/14 10:25:29;;;;;;;34.30;25.88;;;15.30;1.00;;;;;;4930690;29;20521;-55
2023/03/14 10:27:54;;;;;;;35.35;27.17;;;15.10;1.00;;;;;;4925117;29;20168;-68
2023/03/14 10:30:44;;;;;;;31.77;25.15;;;15.00;1.00;;;;;;4931747;29;20110;-67
2023/03/14 10:33:22;;;;;;;31.65;26.15;;;14.60;1.00;;;;;;4932789;29;20421;-66
2023/03/14 10:36:01;;;;;;;33.03;25.67;;;14.60;1.00;;;;;;4931242;29;20512;-66
2023/03/14 10:38:29;;;;;;;33.03;24.00;;;14.80;1.00;;;;;;4932610;29;20143;-54
2023/03/14 10:40:57;;;;;;;32.25;23.65;;;14.90;1.00;;;;;;4932820;29;20102;-65
2023/03/14 10:43:30;;;;;;;29.13;23.05;;;15.00;1.00;;;;;;4931250;29;20382;-58
2023/03/14 10:45:58;;;;;;;29.33;23.02;;;14.90;1.00;;;;;;4932091;29;20469;-61
2023/03/14 10:48:36;;;;;;;27.48;21.35;;;15.10;1.00;;;;;;4927451;29;20024;-61
2023/03/14 10:51:08;;;;;;;29.85;21.45;;;15.30;1.00;;;;;;4929222;29;20051;-61
2023/03/14 10:54:09;;;;;;;24.63;20.02;;;15.30;1.00;;;;;;4923217;29;20107;-61
2023/03/14 10:56:37;;;;;;;28.02;19.42;;;15.40;1.00;;;;;;4909207;29;20577;-61
2023/03/14 10:59:07;;;;;;;26.10;19.23;;;15.40;1.00;;;;;;4933779;29;20122;-61
2023/03/14 11:02:07;;;;;;;27.70;20.33;;;15.40;1.00;;;;;;4935683;29;20056;-59
2023/03/14 11:04:47;;;;;;;23.17;19.48;;;15.60;1.00;;;;;;4935813;29;20039;-61
2023/03/14 11:07:31;;;;;;;25.73;19.83;;;15.50;1.00;;;;;;4926603;29;20375;-62
2023/03/14 11:10:12;;;;;;;26.17;19.50;;;15.60;1.00;;;;;;4928932;29;20040;-61
2023/03/14 11:13:19;;;;;;;23.48;19.20;;;15.90;1.00;;;;;;4937330;29;20023;-63
2023/03/14 11:16:03;;;;;;;26.85;20.65;;;16.00;1.00;;;;;;4916752;29;20042;-57
2023/03/14 11:18:32;;;;;;;25.13;19.13;;;16.00;1.00;;;;;;4934121;29;20028;-64
2023/03/14 11:21:08;;;;;;;21.23;18.52;;;16.10;1.00;;;;;;4935071;29;20034;-64
2023/03/14 11:23:52;;;;;;;22.50;19.08;;;15.90;1.00;;;;;;4928605;29;20028;-61
2023/03/14 11:26:48;;;;;;;22.05;18.88;;;15.80;1.00;;;;;;4935046;29;20059;-61
2023/03/14 11:29:26;;;;;;;21.60;18.00;;;15.80;1.00;;;;;;4927532;29;20083;-60
2023/03/14 11:31:57;;;;;;;25.52;18.73;;;15.70;1.00;;;;;;4933959;29;20481;-51
2023/03/14 11:34:38;;;;;;;20.98;18.65;;;15.50;1.00;;;;;;4928277;29;20097;-59
2023/03/14 11:37:11;;;;;;;22.70;17.98;;;15.50;1.00;;;;;;4930620;29;20102;-69
2023/03/14 11:39:43;;;;;;;21.67;19.02;;;15.60;1.00;;;;;;4936014;29;20066;-60
2023/03/14 11:42:16;;;;;;;26.83;18.75;;;15.60;1.00;;;;;;4934661;29;20039;-57
2023/03/14 11:44:45;;;;;;;21.98;18.85;;;15.70;1.00;;;;;;4930874;29;20126;-63
2023/03/14 11:47:18;;;;;;;27.35;19.10;;;16.00;1.00;;;;;;4932437;29;20180;-51
2023/03/14 11:49:56;;;;;;;25.20;19.10;;;16.20;1.00;;;;;;4933319;29;20035;-54
2023/03/14 11:52:37;;;;;;;25.77;19.27;;;16.30;1.00;;;;;;4931352;29;20111;-47
2023/03/14 11:55:21;;;;;;;29.55;20.77;;;16.20;1.00;;;;;;4929019;29;20043;-56
2023/03/14 11:57:50;;;;;;;23.52;19.25;;;16.20;1.00;;;;;;4933636;29;20047;-62
2023/03/14 12:00:34;;;;;;;26.20;20.63;;;16.20;1.00;;;;;;4930105;29;20066;-58
2023/03/14 12:03:10;;;;;;;25.42;20.42;;;16.30;1.00;;;;;;4934180;29;20468;-68
2023/03/14 12:06:08;;;;;;;27.10;21.08;;;16.30;1.00;;;;;;4931630;29;20028;-59
2023/03/14 12:08:39;;;;;;;26.60;20.48;;;16.20;1.00;;;;;;4903929;29;20497;-62
2023/03/14 12:11:32;;;;;;;22.67;19.30;;;16.30;1.00;;;;;;4936434;29;20031;-66
2023/03/14 12:13:58;;;;;;;23.85;20.08;;;16.40;1.00;;;;;;4935395;29;20040;-60
2023/03/14 12:16:24;;;;;;;24.70;20.20;;;16.50;1.00;;;;;;4930379;29;20066;-62
2023/03/14 12:18:51;;;;;;;22.10;19.13;;;16.50;1.00;;;;;;4929649;29;20032;-59
2023/03/14 12:21:17;;;;;;;24.88;21.00;;;16.50;1.00;;;;;;4930594;29;20038;-61
2023/03/14 12:23:52;;;;;;;22.85;19.15;;;16.60;1.00;;;;;;4930602;29;20035;-59
2023/03/14 12:26:22;;;;;;;;;;;16.50;1.00;;;;;;4931639;29;20035;-58
2023/03/14 12:28:57;;;;;;;22.98;20.23;;;16.40;1.00;;;;;;4932758;29;19919;-57
2023/03/14 12:31:29;;;;;;;22.65;17.65;;;16.30;1.00;;;;;;4934806;29;20063;-60
2023/03/14 12:34:21;;;;;;;23.35;19.25;;;16.40;1.00;;;;;;4934083;29;20027;-58
2023/03/14 12:36:48;;;;;;;24.52;18.17;;;16.40;1.00;;;;;;4917971;29;20047;-59
2023/03/14 12:39:31;;;;;;;21.15;18.05;;;16.60;1.00;;;;;;4931701;29;20055;-59
2023/03/14 12:42:04;;;;;;;21.45;18.38;;;16.80;1.00;;;;;;4930681;29;20115;-58